createdAt,value
2018-09-01T00:00:27.305Z,11.00
2018-09-01T00:02:56.083Z,11.00
2018-09-01T00:05:25.282Z,10.90
2018-09-01T00:07:54.969Z,10.90
2018-09-01T00:10:23.682Z,10.80
2018-09-01T00:12:52.373Z,10.80
2018-09-01T00:15:21.211Z,10.80
2018-09-01T00:17:49.908Z,10.70
2018-09-01T00:20:19.153Z,10.60
2018-09-01T00:22:47.889Z,10.60
2018-09-01T00:25:16.568Z,10.50
2018-09-01T00:27:45.873Z,10.50
2018-09-01T00:33:05.531Z,10.50
2018-09-01T00:35:34.174Z,10.40
2018-09-01T00:38:08.549Z,10.40
2018-09-01T00:40:37.825Z,10.30
2018-09-01T00:43:07.471Z,10.30
2018-09-01T00:45:36.811Z,10.30
2018-09-01T00:48:05.643Z,10.20
2018-09-01T00:50:34.821Z,10.20
2018-09-01T00:53:03.345Z,10.10
2018-09-01T00:55:32.889Z,10.10
2018-09-01T00:58:02.578Z,10.10
2018-09-01T01:00:31.921Z,10.00
2018-09-01T01:03:00.554Z,10.00
2018-09-01T01:05:29.034Z,10.00
2018-09-01T01:07:57.573Z,9.90
2018-09-01T01:10:26.037Z,9.90
2018-09-01T01:12:54.494Z,9.90
2018-09-01T01:15:22.966Z,9.90
2018-09-01T01:17:51.407Z,9.80
2018-09-01T01:20:19.876Z,9.80
2018-09-01T01:22:48.323Z,9.80
2018-09-01T01:25:16.853Z,9.70
2018-09-01T01:27:45.315Z,9.70
2018-09-01T01:30:13.785Z,9.70
2018-09-01T01:32:42.333Z,9.60
2018-09-01T01:35:11.977Z,9.60
2018-09-01T01:37:40.469Z,9.50
2018-09-01T01:40:09.009Z,9.50
2018-09-01T01:42:37.851Z,9.50
2018-09-01T01:45:06.714Z,9.50
2018-09-01T01:47:38.719Z,9.40
2018-09-01T01:52:57.797Z,9.50
2018-09-01T01:55:26.269Z,9.40
2018-09-01T01:57:54.784Z,9.40
2018-09-01T02:00:23.310Z,9.40
2018-09-01T02:02:51.804Z,9.40
2018-09-01T02:05:21.265Z,9.40
2018-09-01T02:07:50.939Z,9.40
2018-09-01T02:10:19.422Z,9.30
2018-09-01T02:12:47.881Z,9.30
2018-09-01T02:15:16.411Z,9.40
2018-09-01T02:17:44.930Z,9.30
2018-09-01T02:20:13.399Z,9.20
2018-09-01T02:22:41.894Z,9.20
2018-09-01T02:25:10.384Z,9.20
2018-09-01T02:27:45.709Z,9.20
2018-09-01T02:30:14.321Z,9.10
2018-09-01T02:32:42.830Z,9.00
2018-09-01T02:35:11.374Z,9.00
2018-09-01T02:37:39.847Z,9.10
2018-09-01T02:40:08.391Z,9.00
2018-09-01T02:42:36.944Z,9.00
2018-09-01T02:45:05.936Z,9.00
2018-09-01T02:47:34.493Z,9.00
2018-09-01T02:50:02.977Z,8.90
2018-09-01T02:52:31.457Z,8.90
2018-09-01T02:54:59.962Z,8.90
2018-09-01T02:57:28.461Z,8.80
2018-09-01T02:59:56.918Z,8.80
2018-09-01T03:02:30.656Z,8.70
2018-09-01T03:04:59.099Z,8.80
2018-09-01T03:07:27.631Z,8.70
2018-09-01T03:12:46.605Z,8.60
2018-09-01T03:15:15.061Z,8.60
2018-09-01T03:17:43.583Z,8.60
2018-09-01T03:20:12.069Z,8.60
2018-09-01T03:22:40.562Z,8.50
2018-09-01T03:25:08.991Z,8.50
2018-09-01T03:27:37.469Z,8.60
2018-09-01T03:30:06.461Z,8.60
2018-09-01T03:32:34.897Z,8.50
2018-09-01T03:37:54.752Z,8.50
2018-09-01T03:40:24.169Z,8.50
2018-09-01T03:42:52.665Z,8.50
2018-09-01T03:48:12.497Z,8.40
2018-09-01T03:50:40.978Z,8.30
2018-09-01T03:53:09.445Z,8.40
2018-09-01T03:55:37.872Z,8.30
2018-09-01T03:58:06.556Z,8.30
2018-09-01T04:00:35.074Z,8.30
2018-09-01T04:03:03.541Z,8.30
2018-09-01T04:05:31.965Z,8.20
2018-09-01T04:08:00.416Z,8.20
2018-09-01T04:10:29.552Z,8.20
2018-09-01T04:12:57.985Z,8.20
2018-09-01T04:15:26.444Z,8.10
2018-09-01T04:17:54.888Z,8.10
2018-09-01T04:20:23.309Z,8.10
2018-09-01T04:22:51.857Z,8.10
2018-09-01T04:25:20.301Z,8.10
2018-09-01T04:27:48.751Z,8.10
2018-09-01T04:30:17.221Z,8.10
2018-09-01T04:32:45.633Z,8.10
2018-09-01T04:35:14.101Z,8.00
2018-09-01T04:37:42.577Z,8.00
2018-09-01T04:40:11.021Z,8.10
2018-09-01T04:42:39.433Z,8.10
2018-09-01T04:45:08.055Z,8.10
2018-09-01T04:47:36.493Z,8.10
2018-09-01T04:50:05.022Z,8.00
2018-09-01T04:52:33.445Z,8.10
2018-09-01T04:55:01.946Z,8.00
2018-09-01T04:57:30.434Z,8.10
2018-09-01T04:59:58.870Z,8.10
2018-09-01T05:02:27.313Z,8.10
2018-09-01T05:04:55.740Z,8.20
2018-09-01T05:07:24.174Z,8.20
2018-09-01T05:09:52.588Z,8.30
2018-09-01T05:12:21.044Z,8.30
2018-09-01T05:14:49.454Z,8.40
2018-09-01T05:17:17.893Z,8.40
2018-09-01T05:19:46.333Z,8.40
2018-09-01T05:22:14.788Z,8.50
2018-09-01T05:24:43.281Z,8.50
2018-09-01T05:27:11.708Z,8.60
2018-09-01T05:29:40.182Z,8.60
2018-09-01T05:32:08.638Z,8.70
2018-09-01T05:34:37.296Z,8.70
2018-09-01T05:37:06.344Z,8.80
2018-09-01T05:39:34.985Z,8.90
2018-09-01T05:42:03.474Z,9.00
2018-09-01T05:44:31.970Z,9.10
2018-09-01T05:47:00.403Z,9.20
2018-09-01T05:49:28.857Z,9.30
2018-09-01T05:51:57.349Z,9.30
2018-09-01T05:57:17.240Z,9.40
2018-09-01T05:59:45.703Z,9.50
2018-09-01T06:02:14.316Z,9.50
2018-09-01T06:04:42.753Z,9.70
2018-09-01T06:07:11.292Z,9.80
2018-09-01T06:09:39.747Z,9.90
2018-09-01T06:12:08.721Z,10.00
2018-09-01T06:14:37.186Z,10.10
2018-09-01T06:17:06.239Z,10.30
2018-09-01T06:19:34.681Z,10.50
2018-09-01T06:22:03.205Z,10.70
2018-09-01T06:27:28.948Z,10.90
2018-09-01T06:29:57.510Z,10.90
2018-09-01T06:32:26.193Z,11.00
2018-09-01T06:34:55.258Z,11.10
2018-09-01T06:37:23.866Z,11.30
2018-09-01T06:39:52.336Z,11.60
2018-09-01T06:42:21.476Z,11.80
2018-09-01T06:44:49.957Z,12.00
2018-09-01T06:47:18.414Z,12.20
2018-09-01T06:49:46.883Z,12.50
2018-09-01T06:52:15.347Z,12.50
2018-09-01T06:54:43.774Z,12.60
2018-09-01T06:57:12.237Z,12.80
2018-09-01T06:59:40.694Z,12.90
2018-09-01T07:02:09.185Z,13.10
2018-09-01T07:04:37.619Z,13.30
2018-09-01T07:07:06.149Z,13.70
2018-09-01T07:09:34.723Z,13.80
2018-09-01T07:12:03.241Z,13.90
2018-09-01T07:14:31.717Z,13.90
2018-09-01T07:17:00.231Z,14.20
2018-09-01T07:19:28.681Z,14.30
2018-09-01T07:21:57.165Z,14.60
2018-09-01T07:24:25.601Z,14.60
2018-09-01T07:26:54.049Z,14.60
2018-09-01T07:29:22.513Z,14.80
2018-09-01T07:31:51.477Z,14.90
2018-09-01T07:34:19.929Z,14.90
2018-09-01T07:36:48.546Z,15.00
2018-09-01T07:39:17.076Z,15.10
2018-09-01T07:41:45.543Z,15.30
2018-09-01T07:44:14.135Z,15.50
2018-09-01T07:46:42.614Z,15.80
2018-09-01T07:49:11.081Z,15.50
2018-09-01T07:51:39.634Z,15.40
2018-09-01T07:54:08.145Z,15.40
2018-09-01T07:56:36.617Z,15.50
2018-09-01T07:59:05.315Z,15.80
2018-09-01T08:01:33.778Z,15.70
2018-09-01T08:04:02.281Z,15.60
2018-09-01T08:06:30.789Z,15.60
2018-09-01T08:08:59.274Z,15.80
2018-09-01T08:11:28.706Z,15.80
2018-09-01T08:13:57.232Z,16.20
2018-09-01T08:16:25.849Z,16.00
2018-09-01T08:18:54.358Z,16.40
2018-09-01T08:21:23.949Z,16.30
2018-09-01T08:23:53.239Z,16.50
2018-09-01T08:26:21.778Z,16.70
2018-09-01T08:28:50.243Z,16.90
2018-09-01T08:31:18.857Z,17.00
2018-09-01T08:33:47.427Z,16.80
2018-09-01T08:36:15.846Z,17.00
2018-09-01T08:38:44.310Z,16.60
2018-09-01T08:41:12.796Z,17.00
2018-09-01T08:43:41.247Z,17.10
2018-09-01T08:46:09.761Z,17.10
2018-09-01T08:48:38.926Z,17.10
2018-09-01T08:51:07.957Z,17.10
2018-09-01T08:53:36.469Z,17.30
2018-09-01T08:56:06.098Z,17.40
2018-09-01T08:58:34.715Z,17.40
2018-09-01T09:01:03.268Z,17.50
2018-09-01T09:03:32.033Z,17.80
2018-09-01T09:06:01.518Z,18.00
2018-09-01T09:08:29.971Z,18.10
2018-09-01T09:10:58.453Z,18.10
2018-09-01T09:13:26.990Z,18.00
2018-09-01T09:15:56.855Z,18.10
2018-09-01T09:18:25.379Z,18.30
2018-09-01T09:20:53.832Z,18.20
2018-09-01T09:23:22.318Z,18.70
2018-09-01T09:25:50.820Z,19.00
2018-09-01T09:28:19.325Z,18.70
2018-09-01T09:30:47.822Z,18.60
2018-09-01T09:33:16.311Z,19.00
2018-09-01T09:35:44.787Z,18.60
2018-09-01T09:38:13.254Z,19.00
2018-09-01T09:40:41.743Z,19.00
2018-09-01T09:43:10.209Z,18.40
2018-09-01T09:45:38.822Z,18.50
2018-09-01T09:48:07.886Z,18.60
2018-09-01T09:50:36.432Z,18.80
2018-09-01T09:53:05.404Z,19.10
2018-09-01T09:55:33.856Z,19.50
2018-09-01T09:58:02.341Z,19.10
2018-09-01T10:00:36.331Z,18.90
2018-09-01T10:03:04.781Z,18.80
2018-09-01T10:05:33.319Z,19.00
2018-09-01T10:08:01.775Z,18.70
2018-09-01T10:10:30.243Z,18.30
2018-09-01T10:12:58.747Z,18.80
2018-09-01T10:15:27.244Z,19.00
2018-09-01T10:17:55.698Z,19.20
2018-09-01T10:20:24.268Z,19.50
2018-09-01T10:22:52.645Z,19.20
2018-09-01T10:25:21.110Z,19.40
2018-09-01T10:27:49.709Z,20.00
2018-09-01T10:30:18.264Z,19.90
2018-09-01T10:32:46.753Z,20.10
2018-09-01T10:35:15.222Z,20.40
2018-09-01T10:37:43.714Z,20.40
2018-09-01T10:40:12.193Z,19.70
2018-09-01T10:42:40.664Z,20.70
2018-09-01T10:45:09.138Z,20.50
2018-09-01T10:47:37.618Z,19.60
2018-09-01T10:50:06.190Z,19.70
2018-09-01T10:52:35.851Z,19.80
2018-09-01T10:55:04.722Z,20.00
2018-09-01T10:57:33.222Z,20.00
2018-09-01T11:00:01.725Z,19.70
2018-09-01T11:02:30.203Z,19.50
2018-09-01T11:04:59.404Z,19.60
2018-09-01T11:07:27.881Z,19.20
2018-09-01T11:09:56.370Z,20.00
2018-09-01T11:12:25.551Z,19.50
2018-09-01T11:14:54.026Z,19.30
2018-09-01T11:17:23.100Z,19.10
2018-09-01T11:19:51.720Z,19.80
2018-09-01T11:22:20.265Z,20.80
2018-09-01T11:24:48.768Z,20.50
2018-09-01T11:27:17.220Z,20.50
2018-09-01T11:29:46.131Z,20.00
2018-09-01T11:32:14.837Z,19.70
2018-09-01T11:34:43.608Z,19.40
2018-09-01T11:37:12.073Z,19.40
2018-09-01T11:39:40.527Z,19.10
2018-09-01T11:42:09.012Z,18.90
2018-09-01T11:44:37.591Z,19.00
2018-09-01T11:47:06.175Z,19.30
2018-09-01T11:49:34.649Z,19.90
2018-09-01T11:52:03.169Z,20.20
2018-09-01T11:54:31.653Z,19.70
2018-09-01T11:57:00.142Z,19.90
2018-09-01T11:59:28.625Z,20.40
2018-09-01T12:01:57.099Z,20.50
2018-09-01T12:04:25.611Z,20.80
2018-09-01T12:06:54.100Z,20.20
2018-09-01T12:09:22.599Z,20.30
2018-09-01T12:11:51.113Z,20.10
2018-09-01T12:14:19.620Z,20.60
2018-09-01T12:16:48.109Z,20.40
2018-09-01T12:19:16.601Z,20.20
2018-09-01T12:21:45.133Z,20.10
2018-09-01T12:24:13.621Z,20.40
2018-09-01T12:26:42.100Z,20.40
2018-09-01T12:29:11.686Z,20.50
2018-09-01T12:31:40.193Z,20.40
2018-09-01T12:34:08.748Z,20.80
2018-09-01T12:36:37.602Z,20.70
2018-09-01T12:39:06.622Z,21.80
2018-09-01T12:41:35.086Z,21.00
2018-09-01T12:44:03.591Z,20.80
2018-09-01T12:46:32.127Z,22.00
2018-09-01T12:49:00.644Z,21.60
2018-09-01T12:51:29.135Z,21.20
2018-09-01T12:53:57.613Z,21.20
2018-09-01T12:56:26.244Z,21.40
2018-09-01T12:58:54.709Z,21.20
2018-09-01T13:01:23.231Z,21.30
2018-09-01T13:03:51.712Z,21.20
2018-09-01T13:06:20.265Z,21.70
2018-09-01T13:08:48.729Z,21.00
2018-09-01T13:11:17.325Z,20.40
2018-09-01T13:13:45.858Z,20.30
2018-09-01T13:16:18.320Z,20.00
2018-09-01T13:18:47.270Z,20.50
2018-09-01T13:21:15.986Z,21.80
2018-09-01T13:23:45.158Z,22.30
2018-09-01T13:26:15.054Z,21.40
2018-09-01T13:28:45.057Z,21.30
2018-09-01T13:31:13.835Z,21.30
2018-09-01T13:33:42.315Z,21.40
2018-09-01T13:36:10.807Z,21.10
2018-09-01T13:38:39.392Z,20.90
2018-09-01T13:41:07.873Z,20.60
2018-09-01T13:43:36.359Z,20.50
2018-09-01T13:46:04.881Z,21.20
2018-09-01T13:48:33.354Z,21.10
2018-09-01T13:51:01.854Z,21.20
2018-09-01T13:53:30.309Z,21.00
2018-09-01T13:55:58.786Z,20.90
2018-09-01T13:58:27.297Z,20.80
2018-09-01T14:00:55.761Z,21.30
2018-09-01T14:03:24.235Z,21.40
2018-09-01T14:05:52.723Z,21.70
2018-09-01T14:08:21.243Z,21.90
2018-09-01T14:10:49.697Z,21.00
2018-09-01T14:13:18.191Z,21.00
2018-09-01T14:15:46.677Z,20.90
2018-09-01T14:18:15.153Z,21.30
2018-09-01T14:20:43.662Z,21.50
2018-09-01T14:23:12.166Z,21.80
2018-09-01T14:25:40.663Z,21.60
2018-09-01T14:28:09.269Z,21.80
2018-09-01T14:30:37.860Z,22.80
2018-09-01T14:33:07.094Z,22.20
2018-09-01T14:35:35.596Z,22.50
2018-09-01T14:38:04.085Z,21.70
2018-09-01T14:40:32.648Z,21.60
2018-09-01T14:43:01.191Z,21.20
2018-09-01T14:45:29.683Z,21.20
2018-09-01T14:47:58.146Z,20.70
2018-09-01T14:50:27.158Z,20.70
2018-09-01T14:52:55.670Z,20.80
2018-09-01T14:55:24.152Z,20.50
2018-09-01T14:57:52.671Z,20.20
2018-09-01T15:00:21.137Z,20.30
2018-09-01T15:02:49.662Z,26.40
2018-09-01T15:05:18.157Z,23.40
2018-09-01T15:07:46.642Z,22.10
2018-09-01T15:10:15.141Z,21.50
2018-09-01T15:12:43.654Z,21.10
2018-09-01T15:15:12.123Z,21.00
2018-09-01T15:17:40.616Z,21.10
2018-09-01T15:20:09.738Z,21.20
2018-09-01T15:22:38.326Z,21.20
2018-09-01T15:25:06.974Z,20.90
2018-09-01T15:27:35.534Z,21.00
2018-09-01T15:30:04.124Z,20.60
2018-09-01T15:32:32.591Z,20.50
2018-09-01T15:35:01.112Z,20.50
2018-09-01T15:37:29.582Z,20.60
2018-09-01T15:39:58.079Z,20.50
2018-09-01T15:42:26.802Z,20.50
2018-09-01T15:44:55.357Z,20.20
2018-09-01T15:47:25.750Z,20.40
2018-09-01T15:49:54.912Z,20.50
2018-09-01T15:52:23.542Z,20.50
2018-09-01T15:54:52.148Z,20.60
2018-09-01T15:57:20.819Z,20.60
2018-09-01T15:59:50.504Z,20.80
2018-09-01T16:02:19.276Z,20.60
2018-09-01T16:04:49.344Z,20.30
2018-09-01T16:07:17.840Z,20.40
2018-09-01T16:09:47.050Z,20.30
2018-09-01T16:12:15.747Z,20.10
2018-09-01T16:14:45.045Z,20.00
2018-09-01T16:17:14.334Z,20.00
2018-09-01T16:19:43.344Z,20.20
2018-09-01T16:22:11.869Z,20.30
2018-09-01T16:24:42.251Z,20.10
2018-09-01T16:27:12.018Z,20.00
2018-09-01T16:29:40.542Z,20.10
2018-09-01T16:32:09.237Z,20.00
2018-09-01T16:34:38.784Z,20.10
2018-09-01T16:37:07.937Z,20.10
2018-09-01T16:39:37.237Z,20.00
2018-09-01T16:42:06.517Z,20.00
2018-09-01T16:44:35.393Z,19.90
2018-09-01T16:47:04.590Z,19.90
2018-09-01T16:49:33.054Z,19.80
2018-09-01T16:52:01.699Z,19.70
2018-09-01T16:54:30.885Z,19.60
2018-09-01T16:57:00.128Z,19.50
2018-09-01T16:59:29.591Z,19.50
2018-09-01T17:01:59.555Z,19.60
2018-09-01T17:04:28.334Z,19.60
2018-09-01T17:06:56.825Z,19.40
2018-09-01T17:09:25.489Z,19.40
2018-09-01T17:11:54.756Z,19.30
2018-09-01T17:14:24.088Z,19.40
2018-09-01T17:16:52.757Z,20.40
2018-09-01T17:19:21.967Z,19.30
2018-09-01T17:21:50.442Z,19.30
2018-09-01T17:24:19.100Z,19.30
2018-09-01T17:26:47.622Z,19.30
2018-09-01T17:29:16.098Z,19.30
2018-09-01T17:31:44.581Z,19.30
2018-09-01T17:34:13.067Z,19.30
2018-09-01T17:36:41.566Z,19.10
2018-09-01T17:39:12.171Z,19.00
2018-09-01T17:41:41.305Z,18.90
2018-09-01T17:44:09.808Z,18.80
2018-09-01T17:46:38.326Z,18.70
2018-09-01T17:49:06.818Z,18.70
2018-09-01T17:51:35.998Z,18.60
2018-09-01T17:54:04.496Z,18.50
2018-09-01T17:56:33.216Z,18.40
2018-09-01T17:59:01.721Z,18.40
2018-09-01T18:01:32.530Z,18.30
2018-09-01T18:04:01.012Z,18.20
2018-09-01T18:06:30.134Z,18.10
2018-09-01T18:08:59.601Z,18.10
2018-09-01T18:11:28.105Z,18.00
2018-09-01T18:14:03.346Z,17.90
2018-09-01T18:16:31.951Z,17.80
2018-09-01T18:19:00.312Z,17.80
2018-09-01T18:21:28.852Z,17.70
2018-09-01T18:23:57.315Z,17.60
2018-09-01T18:26:27.770Z,17.50
2018-09-01T18:28:56.260Z,17.50
2018-09-01T18:31:24.754Z,17.40
2018-09-01T18:33:53.826Z,17.30
2018-09-01T18:36:26.092Z,17.20
2018-09-01T18:38:54.602Z,17.10
2018-09-01T18:41:23.421Z,17.00
2018-09-01T18:43:52.287Z,16.90
2018-09-01T18:46:21.425Z,16.90
2018-09-01T18:48:50.429Z,16.80
2018-09-01T18:51:18.946Z,16.70
2018-09-01T18:53:47.414Z,16.70
2018-09-01T18:56:15.935Z,16.60
2018-09-01T18:58:44.476Z,16.50
2018-09-01T19:01:12.942Z,16.40
2018-09-01T19:03:43.272Z,16.40
2018-09-01T19:06:12.570Z,16.40
2018-09-01T19:08:41.045Z,16.40
2018-09-01T19:11:09.537Z,16.30
2018-09-01T19:13:38.111Z,16.20
2018-09-01T19:16:06.721Z,16.10
2018-09-01T19:18:35.513Z,16.00
2018-09-01T19:21:04.063Z,15.90
2018-09-01T19:23:32.553Z,15.80
2018-09-01T19:26:01.083Z,15.60
2018-09-01T19:28:31.560Z,15.40
2018-09-01T19:31:00.096Z,15.30
2018-09-01T19:33:28.590Z,15.10
2018-09-01T19:35:57.081Z,15.00
2018-09-01T19:38:25.560Z,14.90
2018-09-01T19:40:54.041Z,14.80
2018-09-01T19:43:22.783Z,14.80
2018-09-01T19:45:51.230Z,14.70
2018-09-01T19:48:19.677Z,14.70
2018-09-01T19:50:48.333Z,14.60
2018-09-01T19:53:16.804Z,14.60
2018-09-01T19:55:45.289Z,14.50
2018-09-01T19:58:13.765Z,14.50
2018-09-01T20:00:42.258Z,14.50
2018-09-01T20:03:10.762Z,14.40
2018-09-01T20:05:39.221Z,14.30
2018-09-01T20:08:07.706Z,14.20
2018-09-01T20:10:36.244Z,14.10
2018-09-01T20:13:05.014Z,14.00
2018-09-01T20:15:33.469Z,14.00
2018-09-01T20:18:01.923Z,13.90
2018-09-01T20:20:30.382Z,13.90
2018-09-01T20:22:58.858Z,13.80
2018-09-01T20:25:27.334Z,13.80
2018-09-01T20:27:55.748Z,13.70
2018-09-01T20:30:24.226Z,13.60
2018-09-01T20:32:52.724Z,13.50
2018-09-01T20:35:26.453Z,13.50
2018-09-01T20:37:54.967Z,13.50
2018-09-01T20:40:23.422Z,13.50
2018-09-01T20:42:51.878Z,13.40
2018-09-01T20:45:20.342Z,13.40
2018-09-01T20:47:48.844Z,13.30
2018-09-01T20:50:17.289Z,13.30
2018-09-01T20:52:45.784Z,13.20
2018-09-01T20:55:14.215Z,13.20
2018-09-01T20:57:42.776Z,13.20
2018-09-01T21:00:11.204Z,13.20
2018-09-01T21:02:39.702Z,13.20
2018-09-01T21:05:08.181Z,13.10
2018-09-01T21:07:36.996Z,13.10
2018-09-01T21:10:05.534Z,13.10
2018-09-01T21:12:34.019Z,13.10
2018-09-01T21:15:02.575Z,13.10
2018-09-01T21:17:31.054Z,13.10
2018-09-01T21:19:59.541Z,13.10
2018-09-01T21:22:28.026Z,13.10
2018-09-01T21:24:56.490Z,13.10
2018-09-01T21:27:24.963Z,13.10
2018-09-01T21:29:53.874Z,13.10
2018-09-01T21:32:22.346Z,13.00
2018-09-01T21:34:50.822Z,12.90
2018-09-01T21:37:19.261Z,12.90
2018-09-01T21:39:47.784Z,12.90
2018-09-01T21:42:16.200Z,13.00
2018-09-01T21:44:44.625Z,12.90
2018-09-01T21:47:13.171Z,12.90
2018-09-01T21:49:41.674Z,12.80
2018-09-01T21:52:10.151Z,12.80
2018-09-01T21:54:38.593Z,12.80
2018-09-01T21:57:07.378Z,12.60
2018-09-01T21:59:35.834Z,12.60
2018-09-01T22:02:09.653Z,12.50
2018-09-01T22:04:43.474Z,12.40
2018-09-01T22:07:11.948Z,12.50
2018-09-01T22:09:40.525Z,12.40
2018-09-01T22:12:08.972Z,12.30
2018-09-01T22:14:37.465Z,12.20
2018-09-01T22:17:06.040Z,12.10
2018-09-01T22:19:34.484Z,12.10
2018-09-01T22:22:02.952Z,12.20
2018-09-01T22:24:31.518Z,12.10
2018-09-01T22:27:03.808Z,12.10
2018-09-01T22:29:32.253Z,12.10
2018-09-01T22:32:00.913Z,12.00
2018-09-01T22:34:29.657Z,12.00
2018-09-01T22:36:58.093Z,12.00
2018-09-01T22:39:26.587Z,11.90
2018-09-01T22:41:55.105Z,11.80
2018-09-01T22:44:23.558Z,11.80
2018-09-01T22:46:52.510Z,11.80
2018-09-01T22:49:20.985Z,11.80
2018-09-01T22:51:49.462Z,11.70
2018-09-01T22:54:17.930Z,11.80
2018-09-01T22:56:46.375Z,11.70
2018-09-01T22:59:14.881Z,11.60
2018-09-01T23:01:44.030Z,11.60
2018-09-01T23:04:12.533Z,11.60
2018-09-01T23:06:40.986Z,11.60
2018-09-01T23:09:09.676Z,11.50
2018-09-01T23:11:38.177Z,11.50
2018-09-01T23:14:06.825Z,11.50
2018-09-01T23:16:35.285Z,11.50
2018-09-01T23:19:03.900Z,11.50
2018-09-01T23:21:32.372Z,11.50
2018-09-01T23:24:00.837Z,11.50
2018-09-01T23:26:29.310Z,11.50
2018-09-01T23:28:58.453Z,11.40
2018-09-01T23:31:26.935Z,11.40
2018-09-01T23:33:55.892Z,11.30
2018-09-01T23:36:24.489Z,11.30
2018-09-01T23:38:52.909Z,11.30
2018-09-01T23:41:21.385Z,11.20
2018-09-01T23:43:49.829Z,11.30
2018-09-01T23:46:18.313Z,11.20
2018-09-01T23:48:46.765Z,11.20
2018-09-01T23:51:15.215Z,11.20
2018-09-01T23:53:43.736Z,11.20
2018-09-01T23:56:12.171Z,11.10
2018-09-01T23:58:40.622Z,11.10
